Time;durP1;ratioP1;P1;durP2;ratioP2;P2;SDS_P1;SDS_P2;PMS_P1;PMS_P2;Temp;Humidity;BMP_temperature;BMP_pressure;BME280_temperature;BME280_humidity;BME280_pressure;Samples;Min_cycle;Max_cycle;Signal;HPM_P1;HPM_P2
2022/06/28 00:01:37;;;;;;;2.63;1.90;;;16.30;99.90;;;;;;5060947;28;20459;-92
2022/06/28 00:04:04;;;;;;;2.27;2.00;;;16.30;99.90;;;;;;5061111;28;20495;-92
2022/06/28 00:06:31;;;;;;;2.50;2.27;;;16.30;99.90;;;;;;5062009;28;20480;-92
2022/06/28 00:08:58;;;;;;;2.37;2.10;;;16.30;99.90;;;;;;5060033;28;20470;-92
2022/06/28 00:11:24;;;;;;;2.57;1.80;;;16.30;99.90;;;;;;5059566;28;20463;-91
2022/06/28 00:13:52;;;;;;;2.07;1.97;;;16.30;99.90;;;;;;5060053;28;20506;-92
2022/06/28 00:16:19;;;;;;;2.83;1.90;;;16.30;99.90;;;;;;5059153;28;20451;-92
2022/06/28 00:18:48;;;;;;;2.20;2.10;;;16.40;99.90;;;;;;5059798;28;20884;-91
2022/06/28 00:21:15;;;;;;;2.43;1.80;;;16.40;99.90;;;;;;5060137;28;20971;-92
2022/06/28 00:23:42;;;;;;;2.17;1.70;;;16.40;99.90;;;;;;5062163;28;20830;-91
2022/06/28 00:26:10;;;;;;;2.30;2.10;;;16.40;99.90;;;;;;5059752;28;20497;-93
2022/06/28 00:28:37;;;;;;;2.70;2.10;;;16.40;99.90;;;;;;5059588;28;20465;-92
2022/06/28 00:31:04;;;;;;;2.10;1.90;;;16.40;99.90;;;;;;5058945;28;20984;-92
2022/06/28 00:33:32;;;;;;;2.27;2.07;;;16.40;99.90;;;;;;5064756;28;20492;-91
2022/06/28 00:35:59;;;;;;;2.30;2.10;;;16.40;99.90;;;;;;5062586;28;20467;-92
2022/06/28 00:38:26;;;;;;;3.20;2.03;;;16.40;99.90;;;;;;5062479;28;20464;-90
2022/06/28 00:40:54;;;;;;;2.60;1.97;;;16.40;99.90;;;;;;5061970;28;20968;-91
2022/06/28 00:43:21;;;;;;;2.60;1.90;;;16.50;99.90;;;;;;5060622;28;20483;-91
2022/06/28 00:45:49;;;;;;;2.13;1.93;;;16.40;99.90;;;;;;5063192;28;20482;-92
2022/06/28 00:48:17;;;;;;;3.50;2.17;;;16.40;99.90;;;;;;5059509;28;20459;-92
2022/06/28 00:50:46;;;;;;;2.90;1.67;;;16.40;99.90;;;;;;5060944;28;20474;-92
2022/06/28 00:53:15;;;;;;;2.30;2.10;;;16.40;99.90;;;;;;5065373;28;20467;-92
2022/06/28 00:55:42;;;;;;;2.10;1.90;;;16.30;99.90;;;;;;5066920;28;20452;-93
2022/06/28 00:58:09;;;;;;;4.30;1.90;;;16.30;99.90;;;;;;5062521;28;20466;-92
2022/06/28 01:00:38;;;;;;;1.90;1.80;;;16.30;99.90;;;;;;5060004;28;20463;-92
2022/06/28 01:03:05;;;;;;;4.23;2.23;;;16.30;99.90;;;;;;5060358;28;20463;-91
2022/06/28 01:05:33;;;;;;;2.60;1.87;;;16.20;99.90;;;;;;5062962;28;20544;-92
2022/06/28 01:08:02;;;;;;;3.50;2.20;;;16.20;99.90;;;;;;5065244;28;20463;-91
2022/06/28 01:10:28;;;;;;;2.73;1.80;;;16.20;99.90;;;;;;5064384;28;20459;-92
2022/06/28 01:12:55;;;;;;;2.70;1.97;;;16.10;99.90;;;;;;5064802;28;20467;-91
2022/06/28 01:15:22;;;;;;;2.33;2.00;;;16.10;99.90;;;;;;5062910;28;20475;-91
2022/06/28 01:17:49;;;;;;;2.70;2.13;;;16.10;99.90;;;;;;5064844;28;20474;-92
2022/06/28 01:20:15;;;;;;;3.50;1.83;;;16.10;99.90;;;;;;5063453;28;20455;-92
2022/06/28 01:22:44;;;;;;;1.70;1.60;;;16.10;99.90;;;;;;5063813;28;21015;-91
2022/06/28 01:25:12;;;;;;;1.73;1.63;;;16.00;99.90;;;;;;5062769;28;20487;-92
2022/06/28 01:27:41;;;;;;;2.43;1.80;;;15.90;99.90;;;;;;5061031;28;20455;-92
2022/06/28 01:30:09;;;;;;;2.93;2.10;;;15.80;99.90;;;;;;5059253;28;20498;-92
2022/06/28 01:32:36;;;;;;;2.63;2.20;;;15.80;99.90;;;;;;5059666;28;20463;-92
2022/06/28 01:35:03;;;;;;;2.27;2.07;;;15.80;99.90;;;;;;5060552;28;20491;-91
2022/06/28 01:37:30;;;;;;;2.07;1.97;;;15.80;99.90;;;;;;5059751;28;20463;-91
2022/06/28 01:39:59;;;;;;;2.10;1.90;;;15.80;99.90;;;;;;5058602;28;20528;-91
2022/06/28 01:42:28;;;;;;;2.40;2.13;;;15.70;99.90;;;;;;5058425;28;20468;-91
2022/06/28 01:44:55;;;;;;;2.10;1.90;;;15.70;99.90;;;;;;5058007;28;20487;-92
2022/06/28 01:47:24;;;;;;;2.17;1.97;;;15.80;99.90;;;;;;5058566;28;20451;-92
2022/06/28 01:49:51;;;;;;;2.43;2.17;;;15.80;99.90;;;;;;5057405;28;20988;-92
2022/06/28 01:52:18;;;;;;;3.77;2.07;;;15.80;99.90;;;;;;5058467;28;20464;-92
2022/06/28 01:54:45;;;;;;;2.33;2.07;;;15.80;99.90;;;;;;5058583;28;20483;-92
2022/06/28 01:57:15;;;;;;;2.00;1.80;;;15.70;99.90;;;;;;5058951;28;20462;-91
2022/06/28 01:59:42;;;;;;;1.80;1.70;;;15.80;99.90;;;;;;5057224;28;20838;-92
2022/06/28 02:02:09;;;;;;;5.47;2.00;;;15.70;99.90;;;;;;5057319;28;20460;-91
2022/06/28 02:04:35;;;;;;;3.67;2.37;;;15.70;99.90;;;;;;5057057;28;20517;-92
2022/06/28 02:07:02;;;;;;;5.20;2.30;;;15.80;99.90;;;;;;5057127;28;20890;-92
2022/06/28 02:09:29;;;;;;;3.20;1.80;;;15.80;99.90;;;;;;5056202;28;20471;-93
2022/06/28 02:11:56;;;;;;;2.27;1.83;;;15.70;99.90;;;;;;5057452;28;20570;-91
2022/06/28 02:14:24;;;;;;;1.90;1.80;;;15.70;99.90;;;;;;5057320;28;20479;-91
2022/06/28 02:16:51;;;;;;;4.57;2.20;;;15.60;99.90;;;;;;5056170;28;20455;-92
2022/06/28 02:19:18;;;;;;;2.20;2.00;;;15.60;99.90;;;;;;5056272;28;20460;-93
2022/06/28 02:21:45;;;;;;;2.20;1.83;;;15.60;99.90;;;;;;5057365;28;20502;-92
2022/06/28 02:24:13;;;;;;;2.60;1.90;;;15.50;99.90;;;;;;5056992;28;20483;-91
2022/06/28 02:26:40;;;;;;;2.17;1.97;;;15.50;99.90;;;;;;5056935;28;20575;-91
2022/06/28 02:29:08;;;;;;;4.57;2.07;;;15.50;99.90;;;;;;5055970;28;20934;-91
2022/06/28 02:31:36;;;;;;;3.60;1.70;;;15.40;99.90;;;;;;5055958;28;20494;-92
2022/06/28 02:34:04;;;;;;;5.40;2.20;;;15.40;99.90;;;;;;5055970;28;20510;-92
2022/06/28 02:42:01;;;;;;;1.80;1.70;;;15.30;99.90;;;;;;5065227;28;20434;-93
2022/06/28 02:44:27;;;;;;;2.50;1.60;;;15.20;99.90;;;;;;5076903;28;20464;-92
2022/06/28 02:46:55;;;;;;;3.20;1.80;;;15.20;99.90;;;;;;5061074;28;20860;-92
2022/06/28 02:49:22;;;;;;;3.80;2.20;;;15.20;99.90;;;;;;5058188;28;20475;-92
2022/06/28 02:51:49;;;;;;;2.37;2.17;;;15.20;99.90;;;;;;5058463;28;20456;-92
2022/06/28 02:54:16;;;;;;;2.10;1.90;;;15.20;99.90;;;;;;5058172;28;20483;-92
2022/06/28 02:56:44;;;;;;;2.20;2.00;;;15.10;99.90;;;;;;5062542;28;20467;-93
2022/06/28 02:59:11;;;;;;;4.07;1.97;;;15.10;99.90;;;;;;5072342;28;20459;-91
2022/06/28 03:01:38;;;;;;;2.90;2.23;;;15.10;99.90;;;;;;5056907;28;20463;-92
2022/06/28 03:04:07;;;;;;;2.17;1.70;;;15.10;99.90;;;;;;5088058;22;20489;-67
2022/06/28 03:06:33;;;;;;;2.13;1.93;;;15.10;99.90;;;;;;5049919;28;20485;-67
2022/06/28 03:09:00;;;;;;;2.17;2.07;;;15.00;99.90;;;;;;5049834;28;20456;-66
2022/06/28 03:11:27;;;;;;;2.90;2.27;;;15.00;99.90;;;;;;5052935;28;20495;-67
2022/06/28 03:13:54;;;;;;;2.50;2.00;;;15.00;99.90;;;;;;5053863;28;20472;-67
2022/06/28 03:16:20;;;;;;;2.23;2.03;;;15.00;99.90;;;;;;5053284;28;20838;-67
2022/06/28 03:18:47;;;;;;;2.13;1.93;;;14.90;99.90;;;;;;5053496;28;20491;-66
2022/06/28 03:21:15;;;;;;;2.70;2.03;;;15.00;99.90;;;;;;5053572;28;20459;-66
2022/06/28 03:23:42;;;;;;;2.50;2.30;;;15.00;99.90;;;;;;5053572;28;20459;-67
2022/06/28 03:26:08;;;;;;;2.27;1.83;;;15.00;99.90;;;;;;5053632;28;20509;-67
2022/06/28 03:28:35;;;;;;;4.40;1.70;;;15.00;99.90;;;;;;5053818;28;20868;-66
2022/06/28 03:31:02;;;;;;;2.17;1.97;;;15.00;99.90;;;;;;5052758;28;20989;-66
2022/06/28 03:33:29;;;;;;;3.43;2.10;;;15.00;99.90;;;;;;5053595;28;20470;-66
2022/06/28 03:35:55;;;;;;;2.13;1.97;;;15.00;99.90;;;;;;5051866;28;20456;-66
2022/06/28 03:38:23;;;;;;;2.50;2.20;;;15.00;99.90;;;;;;5053525;28;20483;-66
2022/06/28 03:40:50;;;;;;;2.03;1.80;;;15.00;99.90;;;;;;5053026;28;20459;-66
2022/06/28 03:43:17;;;;;;;2.63;2.07;;;15.00;99.90;;;;;;5053623;28;20973;-66
2022/06/28 03:45:44;;;;;;;2.00;1.90;;;15.00;99.90;;;;;;5053644;28;20459;-67
2022/06/28 03:48:10;;;;;;;2.03;1.83;;;15.00;99.90;;;;;;5053367;28;20848;-67
2022/06/28 03:50:37;;;;;;;2.80;2.17;;;15.00;99.90;;;;;;5052809;28;20456;-65
2022/06/28 03:53:04;;;;;;;2.15;1.95;;;15.10;99.90;;;;;;5053404;28;20456;-67
2022/06/28 03:55:32;;;;;;;3.03;2.47;;;15.10;99.90;;;;;;5053372;28;20201;-67
2022/06/28 03:57:58;;;;;;;2.00;1.80;;;15.10;99.90;;;;;;5052694;28;20486;-66
2022/06/28 04:00:25;;;;;;;2.53;2.33;;;15.10;99.90;;;;;;5052723;28;20463;-67
2022/06/28 04:02:52;;;;;;;2.40;2.20;;;15.10;99.90;;;;;;5053408;28;20967;-67
2022/06/28 04:05:19;;;;;;;2.40;2.20;;;15.20;99.90;;;;;;5053169;28;20467;-67
2022/06/28 04:07:45;;;;;;;2.77;2.13;;;15.20;99.90;;;;;;5052519;28;20856;-67
2022/06/28 04:10:12;;;;;;;2.10;1.90;;;15.20;99.90;;;;;;5059925;28;20459;-65
2022/06/28 04:12:40;;;;;;;3.30;2.40;;;15.30;99.90;;;;;;5072798;28;20458;-66
2022/06/28 04:15:08;;;;;;;2.10;2.00;;;15.30;99.90;;;;;;5073214;28;20457;-66
2022/06/28 04:17:34;;;;;;;2.60;2.40;;;15.30;99.90;;;;;;5072809;28;20474;-67
2022/06/28 04:20:01;;;;;;;5.83;2.43;;;15.30;99.90;;;;;;5072753;28;20797;-67
2022/06/28 04:22:28;;;;;;;3.30;2.60;;;15.30;99.90;;;;;;5071940;28;20458;-67
2022/06/28 04:24:54;;;;;;;3.57;2.57;;;15.30;99.90;;;;;;5072781;28;20474;-69
2022/06/28 04:27:21;;;;;;;2.70;1.93;;;15.30;99.90;;;;;;5072433;28;20864;-68
2022/06/28 04:29:49;;;;;;;2.07;1.87;;;15.40;99.90;;;;;;5072202;28;20459;-69
2022/06/28 04:32:16;;;;;;;2.30;2.10;;;15.40;99.90;;;;;;5072583;28;20957;-68
2022/06/28 04:34:42;;;;;;;3.10;2.10;;;15.40;99.90;;;;;;5072587;28;20465;-69
2022/06/28 04:37:09;;;;;;;2.20;2.00;;;15.50;99.90;;;;;;5072307;28;20475;-68
2022/06/28 04:39:36;;;;;;;2.50;2.30;;;15.50;99.90;;;;;;5071795;28;20984;-69
2022/06/28 04:42:03;;;;;;;3.03;2.73;;;15.60;99.90;;;;;;5072299;28;20485;-68
2022/06/28 04:44:30;;;;;;;3.07;2.80;;;15.60;99.90;;;;;;5072158;28;20463;-69
2022/06/28 04:46:58;;;;;;;3.20;2.50;;;15.60;99.90;;;;;;5072187;28;21098;-69
2022/06/28 04:49:24;;;;;;;3.50;2.33;;;15.60;99.90;;;;;;5071727;28;20462;-69
2022/06/28 04:51:51;;;;;;;2.43;2.23;;;15.60;99.90;;;;;;5072354;28;20841;-68
2022/06/28 04:54:18;;;;;;;4.70;2.60;;;15.70;99.90;;;;;;5071944;28;20458;-68
2022/06/28 04:56:45;;;;;;;2.63;2.43;;;15.70;99.90;;;;;;5072015;28;20482;-69
2022/06/28 04:59:12;;;;;;;4.70;3.20;;;15.80;99.90;;;;;;5071701;28;20465;-68
2022/06/28 05:01:38;;;;;;;3.10;2.80;;;15.80;99.90;;;;;;5071903;28;20465;-68
2022/06/28 05:04:06;;;;;;;3.07;2.87;;;15.90;99.90;;;;;;5072036;28;20465;-69
2022/06/28 05:06:33;;;;;;;3.60;3.30;;;15.90;99.90;;;;;;5071633;28;20486;-68
2022/06/28 05:09:00;;;;;;;3.00;2.80;;;16.00;99.90;;;;;;5072511;28;20461;-68
2022/06/28 05:11:26;;;;;;;3.60;3.03;;;16.00;99.90;;;;;;5071154;28;20465;-68
2022/06/28 05:13:53;;;;;;;3.80;2.83;;;16.00;99.90;;;;;;5071983;28;20458;-68
2022/06/28 05:16:20;;;;;;;3.13;2.83;;;16.00;99.90;;;;;;5071578;28;20450;-68
2022/06/28 05:18:47;;;;;;;3.50;3.20;;;16.00;99.90;;;;;;5071641;28;20573;-68
2022/06/28 05:21:15;;;;;;;5.10;3.70;;;16.00;99.90;;;;;;5071000;28;20492;-69
2022/06/28 05:23:41;;;;;;;5.37;4.00;;;15.90;99.90;;;;;;5071468;28;20969;-68
2022/06/28 05:26:08;;;;;;;5.83;3.93;;;16.00;99.90;;;;;;5071370;28;20481;-68
2022/06/28 05:28:35;;;;;;;4.67;4.27;;;16.00;99.90;;;;;;5071524;28;20482;-69
2022/06/28 05:31:02;;;;;;;7.10;4.20;;;16.10;99.90;;;;;;5071013;28;20541;-67
2022/06/28 05:33:30;;;;;;;4.67;4.20;;;16.10;99.90;;;;;;5070813;28;20458;-69
2022/06/28 05:35:57;;;;;;;6.00;5.03;;;16.30;99.90;;;;;;5071568;28;20458;-69
2022/06/28 05:38:25;;;;;;;6.10;5.27;;;16.40;99.90;;;;;;5071002;28;20490;-69
2022/06/28 05:40:51;;;;;;;5.63;5.13;;;16.50;99.90;;;;;;5070774;28;20965;-69
2022/06/28 05:43:18;;;;;;;7.50;6.77;;;16.50;99.90;;;;;;5071156;28;20462;-69
2022/06/28 05:45:45;;;;;;;8.27;7.50;;;16.50;99.90;;;;;;5071198;28;20465;-69
2022/06/28 05:48:12;;;;;;;7.73;6.63;;;16.60;99.90;;;;;;5070833;28;21259;-69
2022/06/28 05:50:38;;;;;;;9.50;7.30;;;16.60;99.90;;;;;;5070919;28;20483;-69
2022/06/28 05:53:05;;;;;;;8.27;6.67;;;16.60;99.90;;;;;;5071048;28;20463;-68
2022/06/28 05:55:33;;;;;;;7.87;7.17;;;16.60;99.90;;;;;;5070961;28;20462;-69
2022/06/28 05:58:00;;;;;;;7.97;7.30;;;16.70;99.90;;;;;;5070865;28;20479;-69
2022/06/28 06:00:27;;;;;;;8.30;7.50;;;16.70;99.90;;;;;;5070348;28;20818;-69
2022/06/28 06:02:54;;;;;;;9.73;8.40;;;16.70;99.90;;;;;;5071047;28;20478;-68
2022/06/28 06:05:20;;;;;;;8.03;7.30;;;16.70;99.90;;;;;;5070845;28;20477;-69
2022/06/28 06:07:47;;;;;;;9.60;8.00;;;16.70;99.90;;;;;;5070961;28;20513;-69
2022/06/28 06:10:14;;;;;;;7.77;7.07;;;16.80;99.90;;;;;;5070189;28;20465;-69
2022/06/28 06:12:42;;;;;;;8.70;7.90;;;16.80;99.90;;;;;;5070890;28;20466;-68
2022/06/28 06:15:10;;;;;;;7.80;7.03;;;16.80;99.90;;;;;;5070681;28;20462;-69
2022/06/28 06:17:36;;;;;;;7.77;7.00;;;16.80;99.90;;;;;;5070762;28;20493;-68
2022/06/28 06:20:04;;;;;;;8.40;7.70;;;16.90;99.90;;;;;;5070470;28;20831;-68
2022/06/28 06:22:31;;;;;;;7.77;7.07;;;17.00;99.90;;;;;;5070707;28;20459;-66
2022/06/28 06:24:58;;;;;;;7.77;6.97;;;17.00;99.90;;;;;;5070784;28;20808;-66
2022/06/28 06:27:25;;;;;;;8.10;7.40;;;17.00;99.90;;;;;;5070349;28;20494;-67
2022/06/28 06:29:53;;;;;;;8.13;7.43;;;17.00;99.90;;;;;;5070234;28;20462;-68
2022/06/28 06:32:19;;;;;;;7.37;6.67;;;17.10;99.90;;;;;;5070509;28;20489;-69
2022/06/28 06:34:46;;;;;;;7.37;6.77;;;17.10;99.90;;;;;;5070581;28;20470;-69
2022/06/28 06:37:13;;;;;;;6.97;6.40;;;17.20;99.90;;;;;;5070538;28;20506;-68
2022/06/28 06:39:40;;;;;;;9.60;6.30;;;17.20;99.90;;;;;;5070168;28;20465;-68
2022/06/28 06:42:07;;;;;;;6.47;5.87;;;17.30;99.90;;;;;;5070621;28;20469;-68
2022/06/28 06:44:33;;;;;;;6.80;6.20;;;17.40;99.90;;;;;;5070914;28;20454;-69
2022/06/28 06:47:02;;;;;;;6.87;6.20;;;17.50;99.90;;;;;;5074762;28;20486;-69
2022/06/28 06:49:29;;;;;;;7.47;6.70;;;17.50;99.90;;;;;;5073926;28;20466;-69
2022/06/28 06:51:55;;;;;;;8.50;7.07;;;17.50;99.90;;;;;;5074550;28;20458;-69
2022/06/28 06:54:22;;;;;;;6.90;6.30;;;17.40;99.90;;;;;;5074318;28;20458;-68
2022/06/28 06:56:49;;;;;;;6.80;6.20;;;17.40;99.90;;;;;;5074394;28;20489;-68
2022/06/28 06:59:16;;;;;;;6.10;5.60;;;17.40;99.90;;;;;;5073691;28;20459;-67
2022/06/28 07:01:43;;;;;;;6.40;5.90;;;17.40;99.90;;;;;;5074373;28;20524;-69
2022/06/28 07:04:11;;;;;;;7.30;6.40;;;17.30;99.90;;;;;;5074065;28;20458;-68
2022/06/28 07:06:38;;;;;;;9.20;6.37;;;17.20;99.90;;;;;;5074160;28;20473;-67
2022/06/28 07:09:05;;;;;;;6.80;6.20;;;17.20;99.90;;;;;;5073829;28;20462;-69
2022/06/28 07:11:32;;;;;;;7.23;6.53;;;17.10;99.90;;;;;;5073819;28;20462;-69
2022/06/28 07:13:59;;;;;;;6.20;5.70;;;17.10;99.90;;;;;;5074201;28;20842;-69
2022/06/28 07:16:26;;;;;;;7.70;6.93;;;17.00;99.90;;;;;;5073818;28;20466;-69
2022/06/28 07:18:52;;;;;;;7.83;7.13;;;17.00;99.90;;;;;;5074001;28;20458;-69
2022/06/28 07:21:20;;;;;;;8.33;6.40;;;17.00;99.90;;;;;;5073532;28;20465;-68
2022/06/28 07:23:47;;;;;;;8.93;7.20;;;17.00;99.90;;;;;;5073821;28;20969;-68
2022/06/28 07:26:16;;;;;;;7.27;6.67;;;17.00;99.90;;;;;;5074064;28;20838;-69
2022/06/28 07:28:42;;;;;;;9.50;8.63;;;17.00;99.90;;;;;;5073698;28;20478;-69
2022/06/28 07:31:09;;;;;;;7.50;6.80;;;17.10;99.90;;;;;;5073100;28;20466;-69
2022/06/28 07:33:36;;;;;;;7.87;7.23;;;17.10;99.90;;;;;;5073592;28;20983;-68
2022/06/28 07:36:03;;;;;;;6.80;6.30;;;17.20;99.90;;;;;;5073460;28;20549;-68
2022/06/28 07:38:31;;;;;;;7.83;7.13;;;17.30;99.90;;;;;;5073288;28;20481;-68
2022/06/28 07:40:57;;;;;;;6.93;6.33;;;17.40;99.90;;;;;;5073088;28;20457;-68
2022/06/28 07:43:24;;;;;;;7.67;6.97;;;17.60;99.90;;;;;;5073263;28;20465;-68
2022/06/28 07:45:51;;;;;;;6.70;6.20;;;17.70;99.90;;;;;;5073535;28;21000;-68
2022/06/28 07:48:19;;;;;;;7.30;6.70;;;17.80;99.90;;;;;;5072987;28;20489;-69
2022/06/28 07:53:33;;;;;;;7.97;7.07;;;18.10;99.90;;;;;;5073371;28;20532;-69
2022/06/28 07:56:00;;;;;;;9.10;8.27;;;18.30;99.90;;;;;;5073128;28;20842;-68
2022/06/28 07:58:26;;;;;;;10.13;7.50;;;18.30;99.90;;;;;;5072968;28;20474;-69
2022/06/28 08:00:54;;;;;;;8.50;7.70;;;18.40;99.90;;;;;;5072777;28;20825;-69
2022/06/28 08:03:20;;;;;;;6.93;6.23;;;18.50;99.90;;;;;;5073240;28;20922;-69
2022/06/28 08:05:47;;;;;;;5.90;5.40;;;18.50;99.90;;;;;;5073049;28;20466;-69
2022/06/28 08:08:14;;;;;;;6.10;5.47;;;18.50;99.90;;;;;;5072904;28;21010;-69
2022/06/28 08:10:42;;;;;;;7.03;6.37;;;18.60;99.90;;;;;;5072613;28;20458;-69
2022/06/28 08:13:09;;;;;;;6.07;5.57;;;18.60;99.90;;;;;;5072829;28;20459;-68
2022/06/28 08:15:35;;;;;;;6.10;5.60;;;18.70;99.90;;;;;;5072475;28;20843;-67
2022/06/28 08:18:02;;;;;;;6.70;6.10;;;18.80;99.90;;;;;;5073038;28;20474;-67
2022/06/28 08:20:31;;;;;;;6.27;5.77;;;18.80;99.90;;;;;;5072208;28;20458;-67
2022/06/28 08:22:57;;;;;;;6.70;5.97;;;18.90;99.90;;;;;;5072821;28;21067;-67
2022/06/28 08:25:24;;;;;;;7.27;6.60;;;18.90;99.90;;;;;;5072678;28;20459;-66
2022/06/28 08:27:52;;;;;;;7.00;6.40;;;18.90;99.90;;;;;;5072623;28;20852;-67
2022/06/28 08:30:19;;;;;;;8.07;6.47;;;19.00;99.90;;;;;;5072375;28;20465;-67
2022/06/28 08:32:46;;;;;;;7.73;7.03;;;19.10;99.90;;;;;;5072480;28;20945;-66
2022/06/28 08:35:13;;;;;;;7.33;6.40;;;19.30;99.90;;;;;;5072694;28;20462;-68
2022/06/28 08:37:40;;;;;;;6.70;6.10;;;19.60;99.90;;;;;;5072227;28;20475;-67
2022/06/28 08:40:08;;;;;;;6.83;6.20;;;19.80;99.90;;;;;;5072085;28;20466;-67
2022/06/28 08:42:36;;;;;;;5.77;5.37;;;19.90;99.90;;;;;;5072335;28;20494;-67
2022/06/28 08:45:06;;;;;;;5.70;5.30;;;20.10;99.90;;;;;;5072570;28;20454;-68
2022/06/28 08:47:34;;;;;;;5.80;5.30;;;20.10;99.90;;;;;;5072054;28;20493;-68
2022/06/28 08:50:06;;;;;;;5.37;4.97;;;20.00;99.90;;;;;;5071803;28;20561;-67
2022/06/28 08:52:35;;;;;;;5.50;5.07;;;20.00;99.90;;;;;;5072044;28;21000;-68
2022/06/28 08:55:03;;;;;;;5.63;5.13;;;19.90;99.90;;;;;;5072606;28;20462;-68
2022/06/28 08:57:32;;;;;;;5.80;5.20;;;19.80;99.90;;;;;;5072032;28;20474;-67
2022/06/28 09:00:00;;;;;;;5.80;5.30;;;19.70;99.90;;;;;;5071825;28;20774;-68
2022/06/28 09:02:28;;;;;;;5.00;4.60;;;19.70;99.90;;;;;;5071892;28;20473;-67
2022/06/28 09:04:57;;;;;;;5.23;4.73;;;19.70;99.90;;;;;;5094330;22;20502;-94
2022/06/28 09:07:24;;;;;;;5.43;5.00;;;19.90;99.90;;;;;;5074242;28;20450;-95
2022/06/28 09:09:50;;;;;;;5.87;5.40;;;20.10;99.90;;;;;;5076145;28;20449;-95
2022/06/28 09:12:18;;;;;;;7.03;5.70;;;20.30;99.90;;;;;;5076081;28;20456;-96
2022/06/28 09:14:45;;;;;;;5.93;5.43;;;20.30;99.90;;;;;;5075938;28;20479;-94
2022/06/28 09:17:23;;;;;;;4.47;4.17;;;20.30;99.90;;;;;;5077391;28;20456;-94
2022/06/28 09:19:54;;;;;;;4.83;4.40;;;20.30;99.90;;;;;;5076571;28;20447;-96
2022/06/28 09:22:36;;;;;;;4.50;4.20;;;20.30;99.90;;;;;;5077553;28;20447;-96
2022/06/28 09:25:06;;;;;;;4.47;4.10;;;20.50;99.90;;;;;;5076889;28;20476;-95
2022/06/28 09:27:35;;;;;;;4.83;3.63;;;20.60;99.90;;;;;;5076469;28;20514;-94
2022/06/28 09:30:03;;;;;;;4.27;3.83;;;20.90;99.90;;;;;;5075252;28;20456;-95
2022/06/28 09:32:32;;;;;;;3.90;3.60;;;21.10;99.90;;;;;;5076840;28;20463;-96
2022/06/28 09:35:03;;;;;;;4.17;3.87;;;21.20;99.90;;;;;;5077568;28;20455;-94
2022/06/28 09:37:39;;;;;;;4.30;3.90;;;21.20;99.90;;;;;;5077798;28;20460;-95
2022/06/28 09:40:18;;;;;;;4.50;4.10;;;21.10;99.90;;;;;;5077506;28;20448;-96
2022/06/28 09:42:46;;;;;;;3.50;3.20;;;20.90;99.90;;;;;;5077792;28;20444;-95
2022/06/28 09:45:15;;;;;;;3.67;3.37;;;20.80;99.90;;;;;;5077833;28;20486;-96
2022/06/28 09:47:47;;;;;;;3.53;3.23;;;20.80;99.90;;;;;;5077519;28;20435;-95
2022/06/28 09:50:20;;;;;;;3.70;3.40;;;20.80;99.90;;;;;;5077313;28;20447;-95
2022/06/28 09:52:47;;;;;;;3.73;3.30;;;20.80;99.90;;;;;;5077422;28;20451;-96
2022/06/28 09:55:16;;;;;;;4.33;3.60;;;20.90;99.90;;;;;;5076993;28;20480;-96
2022/06/28 09:57:44;;;;;;;6.30;3.40;;;21.00;99.90;;;;;;5077107;28;20442;-94
2022/06/28 10:00:12;;;;;;;3.60;3.30;;;21.20;99.90;;;;;;5076953;28;20458;-95
2022/06/28 10:02:40;;;;;;;5.47;3.67;;;21.60;99.90;;;;;;5077097;28;20446;-95
2022/06/28 10:05:08;;;;;;;3.97;3.13;;;22.10;99.90;;;;;;5077099;28;20472;-94
2022/06/28 10:07:36;;;;;;;3.17;2.93;;;22.30;99.90;;;;;;5075640;28;20462;-94
2022/06/28 10:10:08;;;;;;;5.93;3.27;;;22.50;99.90;;;;;;5075491;28;20461;-94
2022/06/28 10:15:22;;;;;;;3.37;2.90;;;22.60;99.90;;;;;;5077332;28;20529;-95
2022/06/28 10:17:55;;;;;;;2.90;2.70;;;22.50;99.90;;;;;;5077075;28;20455;-96
2022/06/28 10:20:25;;;;;;;4.43;3.47;;;22.30;99.90;;;;;;5076063;28;20436;-95
2022/06/28 10:23:14;;;;;;;3.70;3.40;;;22.20;99.90;;;;;;5076959;28;20442;-95
2022/06/28 10:25:40;;;;;;;3.73;3.30;;;22.30;99.90;;;;;;5076347;28;20477;-95
2022/06/28 10:28:26;;;;;;;2.80;2.60;;;22.50;99.90;;;;;;5075497;28;20801;-93
2022/06/28 10:31:32;;;;;;;2.80;2.60;;;23.00;99.90;;;;;;5075393;28;20456;-95
2022/06/28 10:34:00;;;;;;;3.20;2.30;;;23.10;99.90;;;;;;5076493;28;20440;-94
2022/06/28 10:36:31;;;;;;;2.50;2.27;;;23.30;99.90;;;;;;5076643;28;20471;-96
2022/06/28 10:39:17;;;;;;;3.10;2.90;;;23.30;99.90;;;;;;5076138;28;20475;-95
2022/06/28 10:41:45;;;;;;;2.60;2.40;;;23.30;99.90;;;;;;5075154;28;20459;-95
2022/06/28 10:44:15;;;;;;;2.90;2.70;;;23.30;99.90;;;;;;5075596;28;20446;-94
2022/06/28 10:46:43;;;;;;;3.23;2.70;;;23.40;99.90;;;;;;5075903;28;20518;-95
2022/06/28 10:49:12;;;;;;;2.90;2.70;;;23.40;99.90;;;;;;5075150;28;20532;-93
2022/06/28 10:51:58;;;;;;;2.47;2.27;;;23.50;99.90;;;;;;5075716;28;20451;-94
2022/06/28 10:54:26;;;;;;;4.07;2.50;;;23.60;99.90;;;;;;5076888;28;20458;-96
2022/06/28 10:56:54;;;;;;;2.50;2.30;;;23.70;99.90;;;;;;5076941;28;20443;-95
2022/06/28 10:59:39;;;;;;;2.20;2.00;;;23.80;99.90;;;;;;5076440;28;20450;-94
2022/06/28 11:02:06;;;;;;;2.63;2.33;;;23.90;99.90;;;;;;5076715;28;20463;-96
2022/06/28 11:04:33;;;;;;;2.60;2.40;;;23.90;99.90;;;;;;5076447;28;20460;-96
2022/06/28 11:07:22;;;;;;;3.00;2.80;;;24.00;99.90;;;;;;5076520;28;20445;-95
2022/06/28 11:09:57;;;;;;;2.40;2.20;;;24.00;99.90;;;;;;5075679;28;20479;-93
2022/06/28 11:12:49;;;;;;;2.40;2.20;;;24.00;99.90;;;;;;5076648;28;20463;-95
2022/06/28 11:15:36;;;;;;;2.37;2.13;;;23.90;99.90;;;;;;5075368;28;20459;-95
2022/06/28 11:18:03;;;;;;;2.50;2.30;;;23.60;99.90;;;;;;5075438;28;20451;-95
2022/06/28 11:20:31;;;;;;;2.70;2.50;;;23.40;99.90;;;;;;5075153;28;20462;-93
2022/06/28 11:22:58;;;;;;;2.77;2.30;;;23.30;99.90;;;;;;5075324;28;20486;-95
2022/06/28 11:27:19;;;;;;;2.37;2.27;;;23.40;99.90;;;;;;5075013;28;20848;-95
2022/06/28 11:28:17;;;;;;;2.53;2.33;;;23.40;99.90;;;;;;5074677;28;20471;-93
2022/06/28 11:30:44;;;;;;;3.17;2.10;;;23.40;99.90;;;;;;5075163;28;20456;-94
2022/06/28 11:33:13;;;;;;;2.47;2.27;;;23.40;99.90;;;;;;5079050;28;20451;-94
2022/06/28 11:35:40;;;;;;;2.50;2.30;;;23.50;99.90;;;;;;5077803;28;20470;-94
2022/06/28 11:38:09;;;;;;;2.90;2.20;;;23.50;99.90;;;;;;5078190;28;20455;-93
2022/06/28 11:40:44;;;;;;;2.53;2.33;;;23.50;99.90;;;;;;5078153;28;20899;-94
2022/06/28 11:43:13;;;;;;;2.70;2.30;;;23.50;99.90;;;;;;5079031;28;20463;-94
2022/06/28 11:45:49;;;;;;;2.20;2.00;;;23.40;99.90;;;;;;5078494;28;20451;-95
2022/06/28 11:48:31;;;;;;;2.63;2.43;;;23.40;99.90;;;;;;5078802;28;20444;-92
2022/06/28 11:50:59;;;;;;;3.20;2.33;;;23.40;99.90;;;;;;5077010;28;20463;-93
2022/06/28 11:53:43;;;;;;;2.60;2.40;;;23.30;99.90;;;;;;5078277;28;20456;-93
2022/06/28 11:56:12;;;;;;;2.83;2.10;;;23.40;99.90;;;;;;5076624;28;20541;-95
2022/06/28 11:58:39;;;;;;;2.73;2.13;;;23.50;99.90;;;;;;5076648;28;20466;-95
2022/06/28 12:01:08;;;;;;;2.50;2.30;;;23.50;99.90;;;;;;5075490;28;20457;-94
2022/06/28 12:03:54;;;;;;;2.17;2.00;;;23.60;99.90;;;;;;5076594;28;20558;-93
2022/06/28 12:06:22;;;;;;;2.30;2.10;;;23.70;99.90;;;;;;5074154;28;20475;-95
2022/06/28 12:08:50;;;;;;;2.60;2.30;;;23.80;99.90;;;;;;5074232;28;20476;-93
2022/06/28 12:11:31;;;;;;;2.83;2.10;;;23.90;99.90;;;;;;5073764;28;20464;-93
2022/06/28 12:13:59;;;;;;;3.23;2.40;;;24.00;99.90;;;;;;5075137;28;20446;-93
2022/06/28 12:16:30;;;;;;;3.30;2.40;;;24.20;99.90;;;;;;5074533;28;20465;-93
2022/06/28 12:18:59;;;;;;;2.20;1.90;;;24.20;99.90;;;;;;5076533;28;20448;-94
2022/06/28 12:21:26;;;;;;;2.07;1.90;;;24.00;99.90;;;;;;5076511;28;20456;-94
2022/06/28 12:24:36;;;;;;;2.57;1.83;;;24.00;99.90;;;;;;5076435;28;20435;-94
2022/06/28 12:27:19;;;;;;;2.60;2.00;;;23.90;99.90;;;;;;5076683;28;20444;-94
2022/06/28 12:29:46;;;;;;;2.30;2.10;;;23.90;99.90;;;;;;5075732;28;20939;-94
2022/06/28 12:32:13;;;;;;;3.17;2.30;;;23.90;99.90;;;;;;5077164;28;20462;-94
2022/06/28 12:34:40;;;;;;;2.60;2.23;;;23.90;99.90;;;;;;5077631;28;20468;-94
2022/06/28 12:37:07;;;;;;;2.10;2.00;;;23.80;99.90;;;;;;5077596;28;20459;-93
2022/06/28 12:39:35;;;;;;;2.10;1.90;;;23.70;99.90;;;;;;5076836;28;20435;-93
2022/06/28 12:42:02;;;;;;;2.00;1.83;;;23.50;99.90;;;;;;5076866;28;20457;-94
2022/06/28 12:44:30;;;;;;;2.40;2.20;;;23.20;99.90;;;;;;5076079;28;20455;-96
2022/06/28 12:46:57;;;;;;;3.83;2.13;;;23.10;99.90;;;;;;5075455;28;20467;-94
2022/06/28 12:49:24;;;;;;;1.80;1.70;;;23.10;99.90;;;;;;5076083;28;20467;-93
2022/06/28 12:51:51;;;;;;;2.00;1.90;;;23.20;99.90;;;;;;5074828;28;20459;-93
2022/06/28 12:54:18;;;;;;;3.10;2.20;;;23.30;99.90;;;;;;5074315;28;20464;-92
2022/06/28 12:56:46;;;;;;;2.50;1.63;;;23.30;99.90;;;;;;5071322;28;20471;-94
2022/06/28 12:59:13;;;;;;;2.20;1.83;;;23.30;99.90;;;;;;5071812;28;20451;-93
2022/06/28 13:01:41;;;;;;;2.30;2.10;;;23.30;99.90;;;;;;5070771;28;20486;-92
2022/06/28 13:04:08;;;;;;;1.90;1.80;;;23.30;99.90;;;;;;5072586;28;20459;-93
2022/06/28 13:06:35;;;;;;;2.43;2.03;;;23.20;99.90;;;;;;5071081;28;20491;-92